createdAt,value
2023-07-06T00:00:39.145Z,99.84
2023-07-06T00:03:06.080Z,99.95
2023-07-06T00:05:32.832Z,99.84
2023-07-06T00:08:01.306Z,100.00
2023-07-06T00:10:27.950Z,99.80
2023-07-06T00:12:58.466Z,99.83
2023-07-06T00:15:24.929Z,100.00
2023-07-06T00:17:51.436Z,100.00
2023-07-06T00:20:18.997Z,100.00
2023-07-06T00:22:46.090Z,100.00
2023-07-06T00:25:13.548Z,100.00
2023-07-06T00:27:41.174Z,100.00
2023-07-06T00:30:16.759Z,100.00
2023-07-06T00:32:44.389Z,100.00
2023-07-06T00:35:11.478Z,100.00
2023-07-06T00:37:40.958Z,100.00
2023-07-06T00:40:10.599Z,100.00
2023-07-06T00:42:43.174Z,100.00
2023-07-06T00:45:12.563Z,100.00
2023-07-06T00:47:49.704Z,100.00
2023-07-06T00:50:19.067Z,100.00
2023-07-06T00:52:50.106Z,100.00
2023-07-06T00:55:19.720Z,100.00
2023-07-06T00:57:54.337Z,100.00
2023-07-06T01:00:25.593Z,100.00
2023-07-06T01:02:58.069Z,100.00
2023-07-06T01:05:27.589Z,100.00
2023-07-06T01:07:56.318Z,100.00
2023-07-06T01:10:23.321Z,100.00
2023-07-06T01:12:50.187Z,100.00
2023-07-06T01:15:17.811Z,100.00
2023-07-06T01:17:58.177Z,100.00
2023-07-06T01:20:36.046Z,100.00
2023-07-06T01:23:41.959Z,100.00
2023-07-06T01:26:44.674Z,100.00
2023-07-06T01:29:22.389Z,100.00
2023-07-06T01:32:05.127Z,100.00
2023-07-06T01:34:37.506Z,100.00
2023-07-06T01:37:17.401Z,100.00
2023-07-06T01:39:44.042Z,100.00
2023-07-06T01:42:13.644Z,100.00
2023-07-06T01:44:49.156Z,100.00
2023-07-06T01:47:20.265Z,100.00
2023-07-06T01:49:50.380Z,100.00
2023-07-06T01:52:39.687Z,100.00
2023-07-06T01:55:22.982Z,100.00
2023-07-06T01:58:07.280Z,100.00
2023-07-06T02:00:39.113Z,100.00
2023-07-06T02:03:09.734Z,100.00
2023-07-06T02:05:40.512Z,100.00
2023-07-06T02:08:12.003Z,100.00
2023-07-06T02:10:38.640Z,100.00
2023-07-06T02:13:05.362Z,100.00
2023-07-06T02:15:32.759Z,100.00
2023-07-06T02:17:59.433Z,100.00
2023-07-06T02:20:26.201Z,100.00
2023-07-06T02:22:53.427Z,100.00
2023-07-06T02:25:21.603Z,100.00
2023-07-06T02:27:48.887Z,100.00
2023-07-06T02:30:15.665Z,100.00
2023-07-06T02:32:42.494Z,100.00
2023-07-06T02:35:13.196Z,100.00
2023-07-06T02:37:40.168Z,100.00
2023-07-06T02:40:12.194Z,100.00
2023-07-06T02:42:42.743Z,100.00
2023-07-06T02:45:10.877Z,100.00
2023-07-06T02:47:37.978Z,100.00
2023-07-06T02:50:12.162Z,100.00
2023-07-06T02:52:40.577Z,100.00
2023-07-06T02:55:10.383Z,100.00
2023-07-06T02:57:40.636Z,100.00
2023-07-06T03:00:15.658Z,100.00
2023-07-06T03:02:43.592Z,100.00
2023-07-06T03:05:11.503Z,100.00
2023-07-06T03:07:39.209Z,100.00
2023-07-06T03:10:08.783Z,100.00
2023-07-06T03:12:38.406Z,100.00
2023-07-06T03:15:14.187Z,100.00
2023-07-06T03:17:41.704Z,100.00
2023-07-06T03:20:15.847Z,100.00
2023-07-06T03:22:47.239Z,100.00
2023-07-06T03:25:15.364Z,100.00
2023-07-06T03:27:42.781Z,100.00
2023-07-06T03:30:11.251Z,100.00
2023-07-06T03:32:39.112Z,100.00
2023-07-06T03:35:06.893Z,100.00
2023-07-06T03:37:33.681Z,100.00
2023-07-06T03:40:00.170Z,100.00
2023-07-06T03:42:27.174Z,100.00
2023-07-06T03:44:57.002Z,100.00
2023-07-06T03:47:24.815Z,100.00
2023-07-06T03:49:53.307Z,100.00
2023-07-06T03:52:22.701Z,100.00
2023-07-06T03:54:49.985Z,100.00
2023-07-06T03:57:17.520Z,100.00
2023-07-06T03:59:44.529Z,100.00
2023-07-06T04:02:11.265Z,100.00
2023-07-06T04:04:37.839Z,100.00
2023-07-06T04:07:05.210Z,100.00
2023-07-06T04:09:31.876Z,100.00
2023-07-06T04:11:58.433Z,100.00
2023-07-06T04:14:26.321Z,100.00
2023-07-06T04:16:55.611Z,100.00
2023-07-06T04:19:23.152Z,100.00
2023-07-06T04:21:49.788Z,100.00
2023-07-06T04:24:17.338Z,100.00
2023-07-06T04:26:46.406Z,100.00
2023-07-06T04:29:13.279Z,100.00
2023-07-06T04:31:43.632Z,100.00
2023-07-06T04:34:10.329Z,100.00
2023-07-06T04:36:37.111Z,100.00
2023-07-06T04:39:08.193Z,100.00
2023-07-06T04:41:36.624Z,100.00
2023-07-06T04:44:03.102Z,100.00
2023-07-06T04:46:29.661Z,100.00
2023-07-06T04:48:56.385Z,100.00
2023-07-06T04:51:23.528Z,100.00
2023-07-06T04:53:50.333Z,100.00
2023-07-06T04:56:17.054Z,100.00
2023-07-06T04:58:46.169Z,100.00
2023-07-06T05:01:12.798Z,100.00
2023-07-06T05:03:40.000Z,100.00
2023-07-06T05:06:13.605Z,100.00
2023-07-06T05:08:44.783Z,100.00
2023-07-06T05:11:11.962Z,100.00
2023-07-06T05:13:38.494Z,100.00
2023-07-06T05:16:05.673Z,100.00
2023-07-06T05:18:32.633Z,100.00
2023-07-06T05:20:59.515Z,100.00
2023-07-06T05:23:30.556Z,100.00
2023-07-06T05:26:01.634Z,100.00
2023-07-06T05:28:30.401Z,100.00
2023-07-06T05:30:57.303Z,100.00
2023-07-06T05:33:23.958Z,100.00
2023-07-06T05:35:52.785Z,100.00
2023-07-06T05:38:20.120Z,100.00
2023-07-06T05:40:46.772Z,100.00
2023-07-06T05:43:16.358Z,100.00
2023-07-06T05:45:43.168Z,100.00
2023-07-06T05:48:09.975Z,100.00
2023-07-06T05:50:36.652Z,100.00
2023-07-06T05:53:03.526Z,100.00
2023-07-06T05:55:31.761Z,100.00
2023-07-06T05:57:58.679Z,100.00
2023-07-06T06:00:26.728Z,100.00
2023-07-06T06:02:54.831Z,100.00
2023-07-06T06:05:21.396Z,100.00
2023-07-06T06:07:48.268Z,100.00
2023-07-06T06:10:15.864Z,100.00
2023-07-06T06:12:44.388Z,100.00
2023-07-06T06:15:11.460Z,100.00
2023-07-06T06:17:39.165Z,100.00
2023-07-06T06:20:09.814Z,100.00
2023-07-06T06:22:39.238Z,99.59
2023-07-06T06:25:06.878Z,99.10
2023-07-06T06:27:33.603Z,99.00
2023-07-06T06:30:00.179Z,98.71
2023-07-06T06:32:27.311Z,98.07
2023-07-06T06:35:01.961Z,96.84
2023-07-06T06:37:28.558Z,96.08
2023-07-06T06:39:55.388Z,95.82
2023-07-06T06:42:22.526Z,95.65
2023-07-06T06:44:50.631Z,95.86
2023-07-06T06:47:17.344Z,95.51
2023-07-06T06:49:43.814Z,94.20
2023-07-06T06:52:11.470Z,92.84
2023-07-06T06:54:38.079Z,92.11
2023-07-06T06:57:05.499Z,90.79
2023-07-06T06:59:34.161Z,89.75
2023-07-06T07:02:03.125Z,90.12
2023-07-06T07:04:30.860Z,89.82
2023-07-06T07:06:58.576Z,89.40
2023-07-06T07:09:25.290Z,89.26
2023-07-06T07:11:51.841Z,89.03
2023-07-06T07:14:18.927Z,88.47
2023-07-06T07:16:46.073Z,88.47
2023-07-06T07:19:13.303Z,87.32
2023-07-06T07:21:40.189Z,87.40
2023-07-06T07:24:06.867Z,85.90
2023-07-06T07:26:33.395Z,85.28
2023-07-06T07:29:00.014Z,84.98
2023-07-06T07:31:28.044Z,84.51
2023-07-06T07:33:55.380Z,84.45
2023-07-06T07:36:23.231Z,83.97
2023-07-06T07:38:51.476Z,83.01
2023-07-06T07:41:20.497Z,83.08
2023-07-06T07:43:49.530Z,81.17
2023-07-06T07:46:18.943Z,80.17
2023-07-06T07:48:47.464Z,78.66
2023-07-06T07:51:20.407Z,75.58
2023-07-06T07:53:47.071Z,73.83
2023-07-06T07:56:17.013Z,72.28
2023-07-06T07:58:49.176Z,73.04
2023-07-06T08:01:19.428Z,70.99
2023-07-06T08:03:48.871Z,70.48
2023-07-06T08:06:18.122Z,69.29
2023-07-06T08:08:45.205Z,67.52
2023-07-06T08:11:23.481Z,68.36
2023-07-06T08:13:52.424Z,69.04
2023-07-06T08:16:21.562Z,68.58
2023-07-06T08:18:51.416Z,68.20
2023-07-06T08:21:44.422Z,67.88
2023-07-06T08:24:12.777Z,66.76
2023-07-06T08:26:39.263Z,65.95
2023-07-06T08:29:05.816Z,65.83
2023-07-06T08:31:32.471Z,65.27
2023-07-06T08:34:01.889Z,65.84
2023-07-06T08:36:28.653Z,65.76
2023-07-06T08:38:59.540Z,65.92
2023-07-06T08:41:34.692Z,66.23
2023-07-06T08:44:06.415Z,66.73
2023-07-06T08:46:37.851Z,66.43
2023-07-06T08:49:19.068Z,65.38
2023-07-06T08:51:48.754Z,65.21
2023-07-06T08:54:22.340Z,62.15
2023-07-06T08:56:50.542Z,61.57
2023-07-06T08:59:31.021Z,59.85
2023-07-06T09:01:59.213Z,59.67
2023-07-06T09:04:29.859Z,60.46
2023-07-06T09:07:00.849Z,59.38
2023-07-06T09:09:29.371Z,58.34
2023-07-06T09:11:58.575Z,58.70
2023-07-06T09:14:29.776Z,58.80
2023-07-06T09:16:57.650Z,58.61
2023-07-06T09:19:26.143Z,59.15
2023-07-06T09:21:58.993Z,59.91
2023-07-06T09:24:28.804Z,59.36
2023-07-06T09:26:59.978Z,59.34
2023-07-06T09:29:32.948Z,57.28
2023-07-06T09:32:11.849Z,56.14
2023-07-06T09:34:40.285Z,55.94
2023-07-06T09:37:07.205Z,53.57
2023-07-06T09:39:34.094Z,54.25
2023-07-06T09:42:02.392Z,53.92
2023-07-06T09:44:31.648Z,52.61
2023-07-06T09:47:00.903Z,51.94
2023-07-06T09:49:33.758Z,52.90
2023-07-06T09:52:09.802Z,54.19
2023-07-06T09:55:01.386Z,54.80
2023-07-06T09:57:33.675Z,55.76
2023-07-06T10:00:03.542Z,56.12
2023-07-06T10:02:52.158Z,56.32
2023-07-06T10:05:32.563Z,56.66
2023-07-06T10:08:07.245Z,56.49
2023-07-06T10:10:37.030Z,56.87
2023-07-06T10:13:25.482Z,55.05
2023-07-06T10:16:01.239Z,53.86
2023-07-06T10:18:40.527Z,53.10
2023-07-06T10:21:21.939Z,53.40
2023-07-06T10:24:08.837Z,52.65
2023-07-06T10:26:38.277Z,52.60
2023-07-06T10:29:06.530Z,52.71
2023-07-06T10:31:58.450Z,52.87
2023-07-06T10:34:39.718Z,52.83
2023-07-06T10:37:08.190Z,52.99
2023-07-06T10:39:43.466Z,55.36
2023-07-06T10:42:33.211Z,58.67
2023-07-06T10:45:03.880Z,60.65
2023-07-06T10:47:34.722Z,62.87
2023-07-06T10:50:27.451Z,64.16
2023-07-06T10:53:12.015Z,61.37
2023-07-06T10:55:39.811Z,62.33
2023-07-06T10:58:24.197Z,62.05
2023-07-06T11:00:51.912Z,62.26
2023-07-06T11:03:24.194Z,62.31
2023-07-06T11:06:16.129Z,61.45
2023-07-06T11:09:03.507Z,60.22
2023-07-06T11:11:34.104Z,59.82
2023-07-06T11:14:40.186Z,59.50
2023-07-06T11:17:51.384Z,56.88
2023-07-06T11:20:27.501Z,54.71
2023-07-06T11:23:02.030Z,53.62
2023-07-06T11:25:31.294Z,52.49
2023-07-06T11:28:10.957Z,51.05
2023-07-06T11:31:02.823Z,49.99
2023-07-06T11:33:56.844Z,46.69
2023-07-06T11:36:38.778Z,45.60
2023-07-06T11:39:32.384Z,45.29
2023-07-06T11:42:08.527Z,42.13
2023-07-06T11:44:49.609Z,41.91
2023-07-06T11:47:36.504Z,41.25
2023-07-06T11:50:12.665Z,42.33
2023-07-06T11:52:45.502Z,41.73
2023-07-06T11:55:33.136Z,41.92
2023-07-06T11:58:29.702Z,42.26
2023-07-06T12:01:02.208Z,42.93
2023-07-06T12:03:30.782Z,42.80
2023-07-06T12:06:00.200Z,41.31
2023-07-06T12:08:38.020Z,39.70
2023-07-06T12:11:08.774Z,39.04
2023-07-06T12:13:38.496Z,38.17
2023-07-06T12:16:31.781Z,37.29
2023-07-06T12:19:04.818Z,37.22
2023-07-06T12:21:40.093Z,37.64
2023-07-06T12:24:13.374Z,37.02
2023-07-06T12:26:46.160Z,37.16
2023-07-06T12:29:17.073Z,35.83
2023-07-06T12:31:48.162Z,35.58
2023-07-06T12:34:19.403Z,33.79
2023-07-06T12:36:50.794Z,33.87
2023-07-06T12:39:19.898Z,33.24
2023-07-06T12:41:48.097Z,33.42
2023-07-06T12:44:18.615Z,34.22
2023-07-06T12:46:53.867Z,34.28
2023-07-06T12:49:26.047Z,33.34
2023-07-06T12:51:56.800Z,33.55
2023-07-06T12:54:28.714Z,33.43
2023-07-06T12:57:05.013Z,32.05
2023-07-06T12:59:34.002Z,32.48
2023-07-06T13:02:17.605Z,32.28
2023-07-06T13:04:46.962Z,31.79
2023-07-06T13:07:16.742Z,31.78
2023-07-06T13:09:43.706Z,32.01
2023-07-06T13:12:20.079Z,32.21
2023-07-06T13:14:48.175Z,31.88
2023-07-06T13:17:24.088Z,31.54
2023-07-06T13:19:52.153Z,30.53
2023-07-06T13:22:18.797Z,30.83
2023-07-06T13:24:47.617Z,29.86
2023-07-06T13:27:16.656Z,29.73
2023-07-06T13:29:46.296Z,30.17
2023-07-06T13:32:18.785Z,30.69
2023-07-06T13:34:50.865Z,29.87
2023-07-06T13:37:25.597Z,29.90
2023-07-06T13:39:52.809Z,29.86
2023-07-06T13:42:22.858Z,30.27
2023-07-06T13:44:52.615Z,30.52
2023-07-06T13:47:20.526Z,30.36
2023-07-06T13:49:53.618Z,29.83
2023-07-06T13:52:21.462Z,30.18
2023-07-06T13:54:48.221Z,29.58
2023-07-06T13:57:14.747Z,29.91
2023-07-06T13:59:41.457Z,29.41
2023-07-06T14:02:14.104Z,30.19
2023-07-06T14:04:42.671Z,30.13
2023-07-06T14:07:12.875Z,30.85
2023-07-06T14:09:39.533Z,30.76
2023-07-06T14:12:08.470Z,31.00
2023-07-06T14:14:35.243Z,30.60
2023-07-06T14:17:02.046Z,30.91
2023-07-06T14:19:28.648Z,30.11
2023-07-06T14:21:55.364Z,30.39
2023-07-06T14:24:22.847Z,30.21
2023-07-06T14:26:52.979Z,30.33
2023-07-06T14:29:19.548Z,30.49
2023-07-06T14:31:51.316Z,30.63
2023-07-06T14:34:23.252Z,30.46
2023-07-06T14:36:50.076Z,30.10
2023-07-06T14:39:19.306Z,30.27
2023-07-06T14:41:46.082Z,30.28
2023-07-06T14:44:12.797Z,30.91
2023-07-06T14:46:39.521Z,31.51
2023-07-06T14:49:06.635Z,31.20
2023-07-06T14:51:34.044Z,31.73
2023-07-06T14:54:02.723Z,31.58
2023-07-06T14:56:29.323Z,31.20
2023-07-06T14:58:58.379Z,31.64
2023-07-06T15:01:25.106Z,31.60
2023-07-06T15:03:51.741Z,31.88
2023-07-06T15:06:18.478Z,31.95
2023-07-06T15:08:45.078Z,32.37
2023-07-06T15:11:15.903Z,32.72
2023-07-06T15:13:43.026Z,32.96
2023-07-06T15:16:09.730Z,33.26
2023-07-06T15:18:36.359Z,33.43
2023-07-06T15:21:10.926Z,33.21
2023-07-06T15:23:38.857Z,33.24
2023-07-06T15:26:05.988Z,33.51
2023-07-06T15:28:32.642Z,33.44
2023-07-06T15:30:59.446Z,33.30
2023-07-06T15:33:26.041Z,33.35
2023-07-06T15:35:52.618Z,33.53
2023-07-06T15:38:19.187Z,33.66
2023-07-06T15:40:47.700Z,34.15
2023-07-06T15:43:15.328Z,33.87
2023-07-06T15:45:45.086Z,34.14
2023-07-06T15:48:12.298Z,33.95
2023-07-06T15:50:39.837Z,34.43
2023-07-06T15:53:08.045Z,34.40
2023-07-06T15:55:34.713Z,34.53
2023-07-06T15:58:02.442Z,34.82
2023-07-06T16:00:31.751Z,35.08
2023-07-06T16:03:01.840Z,34.59
2023-07-06T16:05:31.600Z,35.31
2023-07-06T16:08:00.994Z,34.56
2023-07-06T16:10:27.595Z,34.62
2023-07-06T16:12:54.355Z,34.82
2023-07-06T16:15:20.939Z,34.77
2023-07-06T16:17:47.827Z,34.72
2023-07-06T16:20:14.368Z,34.55
2023-07-06T16:22:40.848Z,35.01
2023-07-06T16:25:07.645Z,35.42
2023-07-06T16:27:34.145Z,35.13
2023-07-06T16:30:00.751Z,34.56
2023-07-06T16:32:27.482Z,35.12
2023-07-06T16:34:54.109Z,35.34
2023-07-06T16:37:20.682Z,35.21
2023-07-06T16:39:47.858Z,35.37
2023-07-06T16:42:14.773Z,35.40
2023-07-06T16:44:41.369Z,35.37
2023-07-06T16:47:07.956Z,35.20
2023-07-06T16:49:34.577Z,35.26
2023-07-06T16:52:01.645Z,35.54
2023-07-06T16:54:28.426Z,35.38
2023-07-06T16:56:55.008Z,35.64
2023-07-06T16:59:21.669Z,35.49
2023-07-06T17:01:52.065Z,35.23
2023-07-06T17:04:18.882Z,35.61
2023-07-06T17:06:45.466Z,35.55
2023-07-06T17:09:11.954Z,35.71
2023-07-06T17:11:41.491Z,35.90
2023-07-06T17:14:08.267Z,35.67
2023-07-06T17:16:35.067Z,36.01
2023-07-06T17:19:01.958Z,35.95
2023-07-06T17:21:28.820Z,36.10
2023-07-06T17:23:55.422Z,35.83
2023-07-06T17:26:22.056Z,36.05
2023-07-06T17:28:48.636Z,36.21
2023-07-06T17:31:17.207Z,36.66
2023-07-06T17:33:44.009Z,36.68
2023-07-06T17:36:12.112Z,36.94
2023-07-06T17:38:39.427Z,36.97
2023-07-06T17:41:08.256Z,37.23
2023-07-06T17:43:35.929Z,36.98
2023-07-06T17:46:03.376Z,37.34
2023-07-06T17:48:30.482Z,37.38
2023-07-06T17:51:07.981Z,37.58
2023-07-06T17:53:37.528Z,37.35
2023-07-06T17:56:04.733Z,37.63
2023-07-06T17:58:31.293Z,37.57
2023-07-06T18:00:58.114Z,37.74
2023-07-06T18:03:25.263Z,38.38
2023-07-06T18:05:52.548Z,37.94
2023-07-06T18:08:19.476Z,38.04
2023-07-06T18:10:47.311Z,38.66
2023-07-06T18:13:20.848Z,38.95
2023-07-06T18:15:49.096Z,39.98
2023-07-06T18:18:15.892Z,40.55
2023-07-06T18:20:43.989Z,40.89
2023-07-06T18:23:11.480Z,41.46
2023-07-06T18:25:45.207Z,41.38
2023-07-06T18:28:19.707Z,40.88
2023-07-06T18:30:46.410Z,40.83
2023-07-06T18:33:14.021Z,40.97
2023-07-06T18:35:40.936Z,41.26
2023-07-06T18:38:07.568Z,41.75
2023-07-06T18:40:34.175Z,41.66
2023-07-06T18:43:00.826Z,41.32
2023-07-06T18:45:40.478Z,41.29
2023-07-06T18:48:08.568Z,41.74
2023-07-06T18:50:36.656Z,41.32
2023-07-06T18:53:03.200Z,41.36
2023-07-06T18:55:29.674Z,41.46
2023-07-06T18:57:56.189Z,41.48
2023-07-06T19:00:22.864Z,41.15
2023-07-06T19:02:49.444Z,42.05
2023-07-06T19:05:16.070Z,42.22
2023-07-06T19:07:55.909Z,43.02
2023-07-06T19:10:28.726Z,43.47
2023-07-06T19:12:55.189Z,44.06
2023-07-06T19:15:21.615Z,43.58
2023-07-06T19:17:48.146Z,43.74
2023-07-06T19:20:14.600Z,43.51
2023-07-06T19:22:55.735Z,43.65
2023-07-06T19:25:23.028Z,43.67
2023-07-06T19:27:50.095Z,43.96
2023-07-06T19:30:17.056Z,44.57
2023-07-06T19:32:43.616Z,44.93
2023-07-06T19:35:10.375Z,45.38
2023-07-06T19:37:37.123Z,45.85
2023-07-06T19:40:05.848Z,46.29
2023-07-06T19:42:32.393Z,46.52
2023-07-06T19:44:58.876Z,47.21
2023-07-06T19:47:25.437Z,47.32
2023-07-06T19:49:51.921Z,47.83
2023-07-06T19:52:19.475Z,47.99
2023-07-06T19:54:46.034Z,49.17
2023-07-06T19:57:14.303Z,49.60
2023-07-06T19:59:40.858Z,50.38
2023-07-06T20:02:12.823Z,51.29
2023-07-06T20:04:41.720Z,51.96
2023-07-06T20:07:13.718Z,52.55
2023-07-06T20:09:42.691Z,53.22
2023-07-06T20:12:10.082Z,53.41
2023-07-06T20:14:36.957Z,53.92
2023-07-06T20:17:04.262Z,54.50
2023-07-06T20:19:30.924Z,54.96
2023-07-06T20:21:57.450Z,55.18
2023-07-06T20:24:24.419Z,55.41
2023-07-06T20:26:52.156Z,56.10
2023-07-06T20:29:18.661Z,57.41
2023-07-06T20:31:45.196Z,56.95
2023-07-06T20:34:11.727Z,57.52
2023-07-06T20:36:38.378Z,57.54
2023-07-06T20:39:06.440Z,57.88
2023-07-06T20:41:32.892Z,58.34
2023-07-06T20:43:59.451Z,58.48
2023-07-06T20:46:25.934Z,58.89
2023-07-06T20:48:52.492Z,59.07
2023-07-06T20:51:19.109Z,59.62
2023-07-06T20:53:45.544Z,59.91
2023-07-06T20:56:12.199Z,60.55
2023-07-06T20:58:40.752Z,60.70
2023-07-06T21:01:09.293Z,60.92
2023-07-06T21:03:35.982Z,61.54
2023-07-06T21:06:04.109Z,61.87
2023-07-06T21:08:31.044Z,62.01
2023-07-06T21:10:57.811Z,61.88
2023-07-06T21:13:24.685Z,62.26
2023-07-06T21:15:52.161Z,62.37
2023-07-06T21:18:19.537Z,62.76
2023-07-06T21:20:46.533Z,63.30
2023-07-06T21:23:13.063Z,63.75
2023-07-06T21:25:40.810Z,64.05
2023-07-06T21:28:07.576Z,64.35
2023-07-06T21:30:34.161Z,64.92
2023-07-06T21:33:00.678Z,65.40
2023-07-06T21:35:27.241Z,65.68
2023-07-06T21:37:53.954Z,65.95
2023-07-06T21:40:20.500Z,66.47
2023-07-06T21:42:47.050Z,66.77
2023-07-06T21:45:13.571Z,66.80
2023-07-06T21:47:40.199Z,67.04
2023-07-06T21:50:07.168Z,67.22
2023-07-06T21:52:33.596Z,67.60
2023-07-06T21:55:00.189Z,67.97
2023-07-06T21:57:26.862Z,68.06
2023-07-06T21:59:53.381Z,68.57
2023-07-06T22:02:20.050Z,68.91
2023-07-06T22:04:46.572Z,69.76
2023-07-06T22:07:13.039Z,70.19
2023-07-06T22:09:42.387Z,70.52
2023-07-06T22:12:09.435Z,71.02
2023-07-06T22:14:40.218Z,71.35
2023-07-06T22:17:07.143Z,71.37
2023-07-06T22:19:33.613Z,71.48
2023-07-06T22:22:00.226Z,71.47
2023-07-06T22:24:28.759Z,71.46
2023-07-06T22:26:55.268Z,71.71
2023-07-06T22:29:21.729Z,71.76
2023-07-06T22:31:48.379Z,71.59
2023-07-06T22:34:14.923Z,71.53
2023-07-06T22:36:41.657Z,71.88
2023-07-06T22:39:09.157Z,72.00
2023-07-06T22:41:35.654Z,71.94
2023-07-06T22:44:02.548Z,72.16
2023-07-06T22:46:29.192Z,72.13
2023-07-06T22:49:02.230Z,72.10
2023-07-06T22:51:30.353Z,71.82
2023-07-06T22:53:56.962Z,71.69
2023-07-06T22:56:23.605Z,72.05
2023-07-06T22:58:50.146Z,72.02
2023-07-06T23:01:22.471Z,72.27
2023-07-06T23:03:49.633Z,72.76
2023-07-06T23:06:19.365Z,73.08
2023-07-06T23:08:45.884Z,73.34
2023-07-06T23:11:12.588Z,73.65
2023-07-06T23:13:39.609Z,73.98
2023-07-06T23:16:06.490Z,74.04
2023-07-06T23:18:33.665Z,74.90
2023-07-06T23:21:00.661Z,75.12
2023-07-06T23:23:29.710Z,75.44
2023-07-06T23:25:56.357Z,75.85
2023-07-06T23:28:23.274Z,76.10
2023-07-06T23:30:53.866Z,76.22
2023-07-06T23:33:21.160Z,76.41
2023-07-06T23:35:47.776Z,76.64
2023-07-06T23:38:15.295Z,76.89
2023-07-06T23:40:44.940Z,76.85
2023-07-06T23:43:12.018Z,77.01
2023-07-06T23:45:38.636Z,77.00
2023-07-06T23:48:06.068Z,77.07
2023-07-06T23:50:33.312Z,77.29
2023-07-06T23:53:00.226Z,77.77
2023-07-06T23:55:26.800Z,77.77
2023-07-06T23:57:53.760Z,78.05
